createdAt,value
2023-01-12T00:01:25.519Z,6.53
2023-01-12T00:03:53.485Z,5.40
2023-01-12T00:06:21.286Z,2.90
2023-01-12T00:08:49.060Z,3.40
2023-01-12T00:11:16.764Z,6.32
2023-01-12T00:13:44.279Z,3.03
2023-01-12T00:16:35.031Z,4.22
2023-01-12T00:19:07.080Z,4.28
2023-01-12T00:21:38.599Z,6.70
2023-01-12T00:24:08.662Z,8.50
2023-01-12T00:26:35.909Z,3.85
2023-01-12T00:29:03.166Z,3.88
2023-01-12T00:31:30.498Z,7.78
2023-01-12T00:33:57.733Z,5.47
2023-01-12T00:36:25.010Z,10.23
2023-01-12T00:38:52.270Z,8.65
2023-01-12T00:41:38.161Z,5.63
2023-01-12T00:44:24.830Z,6.93
2023-01-12T00:46:52.108Z,4.18
2023-01-12T00:49:19.374Z,3.85
2023-01-12T00:51:46.576Z,6.55
2023-01-12T00:54:13.812Z,3.22
2023-01-12T00:56:41.071Z,4.78
2023-01-12T00:59:08.363Z,5.95
2023-01-12T01:01:35.884Z,5.25
2023-01-12T01:04:03.280Z,7.43
2023-01-12T01:06:30.555Z,5.82
2023-01-12T01:08:57.781Z,6.15
2023-01-12T01:11:25.137Z,6.05
2023-01-12T01:13:52.445Z,5.28
2023-01-12T01:16:19.788Z,6.72
2023-01-12T01:18:47.133Z,6.72
2023-01-12T01:21:14.804Z,8.75
2023-01-12T01:23:42.774Z,7.82
2023-01-12T01:26:14.269Z,6.95
2023-01-12T01:28:41.788Z,9.88
2023-01-12T01:31:27.408Z,5.15
2023-01-12T01:33:54.925Z,3.10
2023-01-12T01:36:22.247Z,6.97
2023-01-12T01:38:50.322Z,5.70
2023-01-12T01:41:28.474Z,7.60
2023-01-12T01:44:00.542Z,4.13
2023-01-12T01:46:43.249Z,5.65
2023-01-12T01:49:13.512Z,4.35
2023-01-12T01:51:42.006Z,8.27
2023-01-12T01:54:09.229Z,4.65
2023-01-12T01:56:37.514Z,4.93
2023-01-12T01:59:17.612Z,5.30
2023-01-12T02:01:45.264Z,9.02
2023-01-12T02:04:12.687Z,6.20
2023-01-12T02:06:40.153Z,7.00
2023-01-12T02:09:15.336Z,7.20
2023-01-12T02:12:01.792Z,3.53
2023-01-12T02:14:47.804Z,5.55
2023-01-12T02:17:33.554Z,4.18
2023-01-12T02:22:37.109Z,5.13
2023-01-12T02:25:07.079Z,5.65
2023-01-12T02:27:43.185Z,3.88
2023-01-12T02:30:29.325Z,6.47
2023-01-12T02:32:59.348Z,7.13
2023-01-12T02:35:34.434Z,4.32
2023-01-12T02:38:11.787Z,5.03
2023-01-12T02:40:48.400Z,6.53
2023-01-12T02:43:18.924Z,3.88
2023-01-12T02:45:50.843Z,4.75
2023-01-12T02:48:27.358Z,3.88
2023-01-12T02:50:54.545Z,10.40
2023-01-12T02:53:25.699Z,6.80
2023-01-12T02:55:53.726Z,3.50
2023-01-12T02:58:22.580Z,6.22
2023-01-12T03:00:51.115Z,5.65
2023-01-12T03:03:19.460Z,6.47
2023-01-12T03:05:47.668Z,4.32
2023-01-12T03:08:17.067Z,7.38
2023-01-12T03:10:44.281Z,4.20
2023-01-12T03:13:14.531Z,5.63
2023-01-12T03:15:47.787Z,6.15
2023-01-12T03:18:15.043Z,3.97
2023-01-12T03:20:46.207Z,4.57
2023-01-12T03:23:17.259Z,4.55
2023-01-12T03:25:45.611Z,6.43
2023-01-12T03:28:15.334Z,3.97
2023-01-12T03:30:44.897Z,5.22
2023-01-12T03:33:12.580Z,2.85
2023-01-12T03:35:41.855Z,7.22
2023-01-12T03:38:12.690Z,13.75
2023-01-12T03:43:27.930Z,3.85
2023-01-12T03:45:58.821Z,3.78
2023-01-12T03:48:36.779Z,3.55
2023-01-12T03:51:11.437Z,3.97
2023-01-12T03:53:39.513Z,4.28
2023-01-12T03:56:08.459Z,7.15
2023-01-12T03:58:36.587Z,3.65
2023-01-12T04:01:04.702Z,4.43
2023-01-12T04:03:32.186Z,4.35
2023-01-12T04:05:59.539Z,3.75
2023-01-12T04:08:26.936Z,2.13
2023-01-12T04:10:54.159Z,2.03
2023-01-12T04:13:21.499Z,3.00
2023-01-12T04:15:49.044Z,6.20
2023-01-12T04:18:16.324Z,3.17
2023-01-12T04:20:43.665Z,2.83
2023-01-12T04:23:11.050Z,4.93
2023-01-12T04:25:38.425Z,1.42
2023-01-12T04:28:05.866Z,4.40
2023-01-12T04:30:33.873Z,3.28
2023-01-12T04:33:01.880Z,8.32
2023-01-12T04:35:29.136Z,2.67
2023-01-12T04:37:57.250Z,4.13
2023-01-12T04:40:25.151Z,5.60
2023-01-12T04:43:08.484Z,3.75
2023-01-12T04:45:37.703Z,1.33
2023-01-12T04:48:06.264Z,5.32
2023-01-12T04:50:33.630Z,2.38
2023-01-12T04:53:04.720Z,4.63
2023-01-12T04:55:32.235Z,2.25
2023-01-12T04:57:59.525Z,2.80
2023-01-12T05:00:26.834Z,2.75
2023-01-12T05:03:06.532Z,3.03
2023-01-12T05:05:34.521Z,1.42
2023-01-12T05:08:21.589Z,2.13
2023-01-12T05:10:56.311Z,2.95
2023-01-12T05:13:24.039Z,3.88
2023-01-12T05:15:51.297Z,2.90
2023-01-12T05:18:18.538Z,5.20
2023-01-12T05:20:45.892Z,2.30
2023-01-12T05:23:13.176Z,4.75
2023-01-12T05:25:40.439Z,2.53
2023-01-12T05:28:07.682Z,2.50
2023-01-12T05:30:35.090Z,5.28
2023-01-12T05:33:02.338Z,3.30
2023-01-12T05:35:29.563Z,3.28
2023-01-12T05:37:57.200Z,4.25
2023-01-12T05:40:24.502Z,6.97
2023-01-12T05:43:11.117Z,5.82
2023-01-12T05:45:38.457Z,5.32
2023-01-12T05:48:05.939Z,4.03
2023-01-12T05:50:33.212Z,4.43
2023-01-12T05:53:00.546Z,3.25
2023-01-12T05:55:27.991Z,3.13
2023-01-12T05:57:55.189Z,5.50
2023-01-12T06:00:22.656Z,1.42
2023-01-12T06:02:49.878Z,4.43
2023-01-12T06:05:17.198Z,4.45
2023-01-12T06:07:44.488Z,4.05
2023-01-12T06:10:12.131Z,5.70
2023-01-12T06:12:58.025Z,2.72
2023-01-12T06:15:25.299Z,4.15
2023-01-12T06:17:52.571Z,1.98
2023-01-12T06:20:19.832Z,6.88
2023-01-12T06:22:47.119Z,2.45
2023-01-12T06:25:14.425Z,4.38
2023-01-12T06:27:41.909Z,2.08
2023-01-12T06:30:09.783Z,3.30
2023-01-12T06:32:37.191Z,1.67
2023-01-12T06:35:18.004Z,3.00
2023-01-12T06:37:46.042Z,5.65
2023-01-12T06:40:13.701Z,4.38
2023-01-12T06:42:42.416Z,3.53
2023-01-12T06:45:10.090Z,2.33
2023-01-12T06:47:57.617Z,3.70
2023-01-12T06:50:24.871Z,3.35
2023-01-12T06:52:52.455Z,2.72
2023-01-12T06:55:19.718Z,2.90
2023-01-12T06:57:46.991Z,2.85
2023-01-12T07:00:14.608Z,1.92
2023-01-12T07:02:41.860Z,3.25
2023-01-12T07:05:09.457Z,4.18
2023-01-12T07:07:39.943Z,5.28
2023-01-12T07:10:07.811Z,3.40
2023-01-12T07:12:35.075Z,4.50
2023-01-12T07:15:03.909Z,2.17
2023-01-12T07:17:31.452Z,4.00
2023-01-12T07:19:58.702Z,3.15
2023-01-12T07:22:27.170Z,4.22
2023-01-12T07:24:56.480Z,2.28
2023-01-12T07:27:24.916Z,2.90
2023-01-12T07:29:52.184Z,2.65
2023-01-12T07:32:19.454Z,7.05
2023-01-12T07:34:46.709Z,4.97
2023-01-12T07:37:14.025Z,5.97
2023-01-12T07:39:41.909Z,3.30
2023-01-12T07:42:24.675Z,2.80
2023-01-12T07:44:53.361Z,4.00
2023-01-12T07:47:20.840Z,4.28
2023-01-12T07:49:48.417Z,4.10
2023-01-12T07:52:15.664Z,3.60
2023-01-12T07:54:43.023Z,2.15
2023-01-12T07:57:11.410Z,3.63
2023-01-12T07:59:38.715Z,1.40
2023-01-12T08:02:06.624Z,2.65
2023-01-12T08:04:34.318Z,3.28
2023-01-12T08:07:01.810Z,2.22
2023-01-12T08:09:29.149Z,1.70
2023-01-12T08:11:56.424Z,3.95
2023-01-12T08:14:33.430Z,2.88
2023-01-12T08:17:01.950Z,1.50
2023-01-12T08:19:32.276Z,2.30
2023-01-12T08:22:02.834Z,2.65
2023-01-12T08:24:32.373Z,5.38
2023-01-12T08:27:00.969Z,1.92
2023-01-12T08:29:32.245Z,2.22
2023-01-12T08:32:01.667Z,2.30
2023-01-12T08:34:31.224Z,1.67
2023-01-12T08:37:00.113Z,1.13
2023-01-12T08:39:29.539Z,2.90
2023-01-12T08:41:57.859Z,3.03
2023-01-12T08:44:28.303Z,1.38
2023-01-12T08:46:58.278Z,3.03
2023-01-12T08:49:26.905Z,1.83
2023-01-12T08:51:54.207Z,0.85
2023-01-12T08:54:22.522Z,2.47
2023-01-12T08:56:49.985Z,1.58
2023-01-12T08:59:19.289Z,2.50
2023-01-12T09:01:47.091Z,1.02
2023-01-12T09:04:14.566Z,1.25
2023-01-12T09:06:43.500Z,3.60
2023-01-12T09:09:12.343Z,1.77
2023-01-12T09:11:44.437Z,1.52
2023-01-12T09:14:12.499Z,2.63
2023-01-12T09:16:40.165Z,1.13
2023-01-12T09:19:07.492Z,1.35
2023-01-12T09:21:36.995Z,0.80
2023-01-12T09:24:05.094Z,0.90
2023-01-12T09:26:33.422Z,1.48
2023-01-12T09:29:01.161Z,0.55
2023-01-12T09:31:29.835Z,1.38
2023-01-12T09:33:57.631Z,0.98
2023-01-12T09:36:26.015Z,0.40
2023-01-12T09:38:54.383Z,3.35
2023-01-12T09:41:56.769Z,3.17
2023-01-12T09:44:48.622Z,1.85
2023-01-12T09:47:15.903Z,0.93
2023-01-12T09:49:46.160Z,1.27
2023-01-12T09:52:33.687Z,1.23
2023-01-12T09:55:00.979Z,1.55
2023-01-12T09:57:34.342Z,1.05
2023-01-12T10:00:07.076Z,1.15
2023-01-12T10:02:35.733Z,0.63
2023-01-12T10:05:08.184Z,1.15
2023-01-12T10:07:36.150Z,1.48
2023-01-12T10:10:05.127Z,0.68
2023-01-12T10:12:32.475Z,0.55
2023-01-12T10:14:59.765Z,1.02
2023-01-12T10:17:38.619Z,0.65
2023-01-12T10:20:09.441Z,0.80
2023-01-12T10:22:49.094Z,2.60
2023-01-12T10:25:21.141Z,1.30
2023-01-12T10:27:52.586Z,1.08
2023-01-12T10:30:19.913Z,1.90
2023-01-12T10:32:47.416Z,6.72
2023-01-12T10:35:16.363Z,0.95
2023-01-12T10:37:44.728Z,0.40
2023-01-12T10:40:26.389Z,1.02
2023-01-12T10:43:19.523Z,1.35
2023-01-12T10:46:07.754Z,0.47
2023-01-12T10:48:35.152Z,0.20
2023-01-12T10:51:19.991Z,0.50
2023-01-12T10:53:47.283Z,4.07
2023-01-12T10:56:21.450Z,0.93
2023-01-12T10:58:57.008Z,2.20
2023-01-12T11:01:24.548Z,0.75
2023-01-12T11:03:52.193Z,2.78
2023-01-12T11:06:24.588Z,1.50
2023-01-12T11:08:55.499Z,3.03
2023-01-12T11:11:22.833Z,5.38
2023-01-12T11:13:52.857Z,1.10
2023-01-12T11:16:28.046Z,1.52
2023-01-12T11:18:55.380Z,1.25
2023-01-12T11:21:24.179Z,0.52
2023-01-12T11:24:11.420Z,7.63
2023-01-12T11:26:51.898Z,4.13
2023-01-12T11:29:22.174Z,0.20
2023-01-12T11:31:50.764Z,0.30
2023-01-12T11:34:24.550Z,1.33
2023-01-12T11:36:54.566Z,0.30
2023-01-12T11:39:24.209Z,0.40
2023-01-12T11:42:11.383Z,0.40
2023-01-12T11:44:57.168Z,1.75
2023-01-12T11:50:06.918Z,0.50
2023-01-12T11:52:34.366Z,1.48
2023-01-12T11:55:02.067Z,2.47
2023-01-12T11:57:46.023Z,6.15
2023-01-12T12:00:34.777Z,1.05
2023-01-12T12:03:08.252Z,1.15
2023-01-12T12:05:41.791Z,0.57
2023-01-12T12:08:11.828Z,1.77
2023-01-12T12:10:51.173Z,0.20
2023-01-12T12:13:28.451Z,4.30
2023-01-12T12:15:59.966Z,5.07
2023-01-12T12:18:46.592Z,3.03
2023-01-12T12:21:13.817Z,0.93
2023-01-12T12:23:47.440Z,3.22
2023-01-12T12:26:23.932Z,0.35
2023-01-12T12:29:14.601Z,0.22
2023-01-12T12:31:50.938Z,1.77
2023-01-12T12:34:24.317Z,4.15
2023-01-12T12:36:59.065Z,0.22
2023-01-12T12:39:29.519Z,0.50
2023-01-12T12:42:15.421Z,0.50
2023-01-12T12:45:16.591Z,0.70
2023-01-12T12:47:44.383Z,0.85
2023-01-12T12:50:31.656Z,1.27
2023-01-12T12:53:02.092Z,0.30
2023-01-12T12:55:29.380Z,0.45
2023-01-12T12:58:03.965Z,1.35
2023-01-12T13:00:40.625Z,1.48
2023-01-12T13:03:08.932Z,1.42
2023-01-12T13:05:51.112Z,2.85
2023-01-12T13:08:22.889Z,1.52
2023-01-12T13:10:57.095Z,0.20
2023-01-12T13:13:49.317Z,1.40
2023-01-12T13:16:16.649Z,0.30
2023-01-12T13:19:04.272Z,0.35
2023-01-12T13:21:43.726Z,0.98
2023-01-12T13:24:11.633Z,2.45
2023-01-12T13:26:39.487Z,3.88
2023-01-12T13:29:25.199Z,0.50
2023-01-12T13:34:37.898Z,0.38
2023-01-12T13:37:24.600Z,3.30
2023-01-12T13:40:08.637Z,0.93
2023-01-12T13:42:56.380Z,0.43
2023-01-12T13:45:23.791Z,1.25
2023-01-12T13:47:52.015Z,0.30
2023-01-12T13:50:21.888Z,2.15
2023-01-12T13:52:59.780Z,1.33
2023-01-12T13:55:28.712Z,0.63
2023-01-12T13:58:03.675Z,0.40
2023-01-12T14:00:35.217Z,0.52
2023-01-12T14:03:04.266Z,1.00
2023-01-12T14:05:31.629Z,0.88
2023-01-12T14:07:58.854Z,1.13
2023-01-12T14:10:36.706Z,0.68
2023-01-12T14:13:25.868Z,0.30
2023-01-12T14:16:19.226Z,0.47
2023-01-12T14:18:48.191Z,1.63
2023-01-12T14:21:21.507Z,5.25
2023-01-12T14:23:49.128Z,0.77
2023-01-12T14:26:22.339Z,1.85
2023-01-12T14:28:51.179Z,0.80
2023-01-12T14:31:37.619Z,0.40
2023-01-12T14:34:05.230Z,0.80
2023-01-12T14:36:37.534Z,0.82
2023-01-12T14:39:08.680Z,2.25
2023-01-12T14:41:54.688Z,1.08
2023-01-12T14:44:45.354Z,0.43
2023-01-12T14:47:23.858Z,0.40
2023-01-12T14:49:54.124Z,0.20
2023-01-12T14:52:34.012Z,1.83
2023-01-12T14:55:20.310Z,1.50
2023-01-12T14:57:55.767Z,15.93
2023-01-12T15:00:30.510Z,0.32
2023-01-12T15:02:59.513Z,0.45
2023-01-12T15:05:30.485Z,1.20
2023-01-12T15:07:58.216Z,3.95
2023-01-12T15:10:28.660Z,0.50
2023-01-12T15:12:57.305Z,0.28
2023-01-12T15:15:24.560Z,0.73
2023-01-12T15:18:11.675Z,2.25
2023-01-12T15:21:05.887Z,1.35
2023-01-12T15:23:52.845Z,2.53
2023-01-12T15:26:24.378Z,1.92
2023-01-12T15:28:51.734Z,0.65
2023-01-12T15:31:30.221Z,0.88
2023-01-12T15:33:57.740Z,0.73
2023-01-12T15:36:25.386Z,1.50
2023-01-12T15:38:52.804Z,0.98
2023-01-12T15:41:44.801Z,1.88
2023-01-12T15:44:16.097Z,0.40
2023-01-12T15:46:43.835Z,0.95
2023-01-12T15:49:13.396Z,2.55
2023-01-12T15:51:41.252Z,0.60
2023-01-12T15:54:08.816Z,1.38
2023-01-12T15:56:36.117Z,0.70
2023-01-12T15:59:03.546Z,0.68
2023-01-12T16:01:37.614Z,2.05
2023-01-12T16:04:40.208Z,0.32
2023-01-12T16:06:53.735Z,0.50
2023-01-12T16:09:21.092Z,1.80
2023-01-12T16:11:49.591Z,0.70
2023-01-12T16:14:18.176Z,1.23
2023-01-12T16:16:45.528Z,0.60
2023-01-12T16:19:21.421Z,0.77
2023-01-12T16:21:48.813Z,1.52
2023-01-12T16:24:16.133Z,0.50
2023-01-12T16:26:43.814Z,0.80
2023-01-12T16:29:11.192Z,0.50
2023-01-12T16:31:39.422Z,0.65
2023-01-12T16:34:07.061Z,0.80
2023-01-12T16:36:34.745Z,1.33
2023-01-12T16:39:02.227Z,0.95
2023-01-12T16:41:29.530Z,1.08
2023-01-12T16:43:59.119Z,0.32
2023-01-12T16:46:26.635Z,0.45
2023-01-12T16:48:55.471Z,0.40
2023-01-12T16:51:22.809Z,0.30
2023-01-12T16:53:51.622Z,0.63
2023-01-12T16:56:18.972Z,0.80
2023-01-12T16:58:49.359Z,0.65
2023-01-12T17:01:18.329Z,1.95
2023-01-12T17:03:48.541Z,0.20
2023-01-12T17:06:17.599Z,0.55
2023-01-12T17:08:45.056Z,0.95
2023-01-12T17:11:13.881Z,0.95
2023-01-12T17:13:41.653Z,0.75
2023-01-12T17:16:12.980Z,0.75
2023-01-12T17:18:40.732Z,0.50
2023-01-12T17:21:09.822Z,2.47
2023-01-12T17:23:37.440Z,8.65
2023-01-12T17:26:06.185Z,13.82
2023-01-12T17:28:37.314Z,11.38
2023-01-12T17:31:11.982Z,16.80
2023-01-12T17:33:39.786Z,3.45
2023-01-12T17:36:08.107Z,2.20
2023-01-12T17:38:36.515Z,2.92
2023-01-12T17:41:08.172Z,2.20
2023-01-12T17:43:37.351Z,3.00
2023-01-12T17:46:07.712Z,1.00
2023-01-12T17:48:35.082Z,1.00
2023-01-12T17:51:06.247Z,1.33
2023-01-12T17:53:33.567Z,1.27
2023-01-12T17:56:02.666Z,0.75
2023-01-12T17:58:29.965Z,0.95
2023-01-12T18:00:57.379Z,0.95
2023-01-12T18:03:25.073Z,0.50
2023-01-12T18:06:02.893Z,0.73
2023-01-12T18:08:32.395Z,1.17
2023-01-12T18:11:09.676Z,0.50
2023-01-12T18:13:37.143Z,0.30
2023-01-12T18:16:05.074Z,0.25
2023-01-12T18:18:32.373Z,0.63
2023-01-12T18:21:20.661Z,0.40
2023-01-12T18:23:50.107Z,1.55
2023-01-12T18:26:18.901Z,3.17
2023-01-12T18:28:46.696Z,1.80
2023-01-12T18:31:15.377Z,0.90
2023-01-12T18:33:43.122Z,1.58
2023-01-12T18:36:15.846Z,2.67
2023-01-12T18:38:43.288Z,2.05
2023-01-12T18:41:29.793Z,2.30
2023-01-12T18:43:58.801Z,2.03
2023-01-12T18:46:46.197Z,3.70
2023-01-12T18:49:13.511Z,1.17
2023-01-12T18:51:59.329Z,0.73
2023-01-12T18:54:26.633Z,1.45
2023-01-12T18:56:53.980Z,0.65
2023-01-12T18:59:21.769Z,0.75
2023-01-12T19:01:49.479Z,1.10
2023-01-12T19:04:26.387Z,0.50
2023-01-12T19:06:59.541Z,0.43
2023-01-12T19:09:42.012Z,2.00
2023-01-12T19:12:09.620Z,1.02
2023-01-12T19:14:55.577Z,0.57
2023-01-12T19:17:31.948Z,0.63
2023-01-12T19:20:00.809Z,0.75
2023-01-12T19:22:47.551Z,0.40
2023-01-12T19:25:34.542Z,0.47
2023-01-12T19:28:20.667Z,0.52
2023-01-12T19:30:48.182Z,1.73
2023-01-12T19:33:16.009Z,0.98
2023-01-12T19:35:50.207Z,0.50
2023-01-12T19:38:17.493Z,0.60
2023-01-12T19:40:47.447Z,3.58
2023-01-12T19:43:20.592Z,0.57
2023-01-12T19:45:49.391Z,0.60
2023-01-12T19:48:17.494Z,0.95
2023-01-12T19:50:45.305Z,0.73
2023-01-12T19:53:14.653Z,0.70
2023-01-12T19:55:42.725Z,0.88
2023-01-12T19:58:10.099Z,0.50
2023-01-12T20:00:45.056Z,0.43
2023-01-12T20:03:13.316Z,1.67
2023-01-12T20:05:41.506Z,1.27
2023-01-12T20:08:09.381Z,0.50
2023-01-12T20:10:38.370Z,1.05
2023-01-12T20:13:08.876Z,1.02
2023-01-12T20:15:38.755Z,0.77
2023-01-12T20:18:08.581Z,0.63
2023-01-12T20:20:36.194Z,1.27
2023-01-12T20:23:05.983Z,3.03
2023-01-12T20:25:33.370Z,2.20
2023-01-12T20:28:01.081Z,1.60
2023-01-12T20:30:43.507Z,0.40
2023-01-12T20:33:11.346Z,0.85
2023-01-12T20:35:39.565Z,0.30
2023-01-12T20:38:08.727Z,0.40
2023-01-12T20:40:35.990Z,0.47
2023-01-12T20:43:03.405Z,0.30
2023-01-12T20:45:30.720Z,1.23
2023-01-12T20:47:58.350Z,0.75
2023-01-12T20:50:25.710Z,0.50
2023-01-12T20:52:54.359Z,3.30
2023-01-12T20:55:22.070Z,0.50
2023-01-12T20:57:49.556Z,1.17
2023-01-12T21:00:17.319Z,0.45
2023-01-12T21:02:44.679Z,0.80
2023-01-12T21:05:11.985Z,0.50
2023-01-12T21:07:39.354Z,0.68
2023-01-12T21:10:08.868Z,0.35
2023-01-12T21:12:36.307Z,0.80
2023-01-12T21:15:03.780Z,0.60
2023-01-12T21:17:31.768Z,0.50
2023-01-12T21:19:59.084Z,1.65
2023-01-12T21:22:26.411Z,0.30
2023-01-12T21:24:53.718Z,0.55
2023-01-12T21:27:21.015Z,0.30
2023-01-12T21:29:48.351Z,0.55
2023-01-12T21:32:15.662Z,0.60
2023-01-12T21:34:42.936Z,1.38
2023-01-12T21:37:10.347Z,1.10
2023-01-12T21:39:37.675Z,0.30
2023-01-12T21:42:23.856Z,0.55
2023-01-12T21:44:51.188Z,0.40
2023-01-12T21:47:18.425Z,0.55
2023-01-12T21:49:45.781Z,1.00
2023-01-12T21:52:13.126Z,0.30
2023-01-12T21:54:40.435Z,0.28
2023-01-12T21:57:07.714Z,0.55
2023-01-12T21:59:35.063Z,0.55
2023-01-12T22:02:02.483Z,0.30
2023-01-12T22:04:29.886Z,2.10
2023-01-12T22:06:57.222Z,0.90
2023-01-12T22:09:29.679Z,0.20
2023-01-12T22:11:56.980Z,0.93
2023-01-12T22:14:24.369Z,0.57
2023-01-12T22:16:51.758Z,1.20
2023-01-12T22:19:19.108Z,0.30
2023-01-12T22:21:46.413Z,0.82
2023-01-12T22:24:13.838Z,0.30
2023-01-12T22:26:41.172Z,0.20
2023-01-12T22:29:08.590Z,0.30
2023-01-12T22:31:35.944Z,0.60
2023-01-12T22:34:07.217Z,0.85
2023-01-12T22:36:41.035Z,3.63
2023-01-12T22:39:08.307Z,1.52
2023-01-12T22:41:35.570Z,0.20
2023-01-12T22:44:02.894Z,0.52
2023-01-12T22:46:30.162Z,0.80
2023-01-12T22:48:59.448Z,1.05
2023-01-12T22:51:27.520Z,1.88
2023-01-12T22:53:55.832Z,2.55
2023-01-12T22:56:23.476Z,0.30
2023-01-12T22:58:51.581Z,1.23
2023-01-12T23:01:19.478Z,1.48
2023-01-12T23:03:48.373Z,0.55
2023-01-12T23:06:16.867Z,0.20
2023-01-12T23:08:45.223Z,1.00
2023-01-12T23:11:16.966Z,1.02
2023-01-12T23:13:44.732Z,0.20
2023-01-12T23:16:13.484Z,0.28
2023-01-12T23:18:41.961Z,0.10
2023-01-12T23:21:11.338Z,0.22
2023-01-12T23:23:39.566Z,0.40
2023-01-12T23:26:09.094Z,0.50
2023-01-12T23:28:41.019Z,0.20
2023-01-12T23:31:09.776Z,0.10
2023-01-12T23:33:37.924Z,0.10
2023-01-12T23:36:06.749Z,0.40
2023-01-12T23:38:34.465Z,0.10
2023-01-12T23:41:10.109Z,0.10
2023-01-12T23:43:37.800Z,0.15
2023-01-12T23:46:05.405Z,0.47
2023-01-12T23:48:32.656Z,0.10
2023-01-12T23:51:00.521Z,0.47
2023-01-12T23:53:28.655Z,0.40
2023-01-12T23:55:56.686Z,0.82
2023-01-12T23:58:25.019Z,0.40
